sensor_id;sensor_type;location;lat;lon;timestamp;P1;durP1;ratioP1;P2;durP2;ratioP2
26965;SDS011;14522;52.068;4.414;2023-07-08T00:01:42;3.75;;;1.90;;
26965;SDS011;14522;52.068;4.414;2023-07-08T00:04:08;8.80;;;2.13;;
26965;SDS011;14522;52.068;4.414;2023-07-08T00:06:35;3.33;;;1.98;;
26965;SDS011;14522;52.068;4.414;2023-07-08T00:09:01;4.10;;;2.28;;
26965;SDS011;14522;52.068;4.414;2023-07-08T00:11:28;4.60;;;2.42;;
26965;SDS011;14522;52.068;4.414;2023-07-08T00:13:54;5.10;;;2.33;;
26965;SDS011;14522;52.068;4.414;2023-07-08T00:16:23;3.63;;;2.38;;
26965;SDS011;14522;52.068;4.414;2023-07-08T00:18:50;3.30;;;2.15;;
26965;SDS011;14522;52.068;4.414;2023-07-08T00:21:16;8.07;;;3.03;;
26965;SDS011;14522;52.068;4.414;2023-07-08T00:23:47;4.80;;;2.65;;
26965;SDS011;14522;52.068;4.414;2023-07-08T00:28:46;2.47;;;1.98;;
26965;SDS011;14522;52.068;4.414;2023-07-08T00:31:12;5.90;;;2.30;;
26965;SDS011;14522;52.068;4.414;2023-07-08T00:33:40;4.22;;;2.53;;
26965;SDS011;14522;52.068;4.414;2023-07-08T00:36:11;3.30;;;2.10;;
26965;SDS011;14522;52.068;4.414;2023-07-08T00:38:37;3.85;;;2.22;;
26965;SDS011;14522;52.068;4.414;2023-07-08T00:41:06;3.95;;;2.28;;
26965;SDS011;14522;52.068;4.414;2023-07-08T00:46:13;3.70;;;2.30;;
26965;SDS011;14522;52.068;4.414;2023-07-08T00:48:44;5.35;;;2.40;;
26965;SDS011;14522;52.068;4.414;2023-07-08T00:51:11;10.90;;;2.50;;
26965;SDS011;14522;52.068;4.414;2023-07-08T00:53:38;5.38;;;2.40;;
26965;SDS011;14522;52.068;4.414;2023-07-08T00:56:12;5.68;;;2.53;;
26965;SDS011;14522;52.068;4.414;2023-07-08T00:58:42;3.28;;;2.08;;
26965;SDS011;14522;52.068;4.414;2023-07-08T01:01:09;5.05;;;2.65;;
26965;SDS011;14522;52.068;4.414;2023-07-08T01:03:40;4.65;;;1.95;;
26965;SDS011;14522;52.068;4.414;2023-07-08T01:06:09;3.83;;;1.83;;
26965;SDS011;14522;52.068;4.414;2023-07-08T01:08:35;4.18;;;2.20;;
26965;SDS011;14522;52.068;4.414;2023-07-08T01:11:02;4.20;;;2.50;;
26965;SDS011;14522;52.068;4.414;2023-07-08T01:13:32;3.95;;;1.90;;
26965;SDS011;14522;52.068;4.414;2023-07-08T01:16:01;4.05;;;2.10;;
26965;SDS011;14522;52.068;4.414;2023-07-08T01:18:28;3.05;;;1.95;;
26965;SDS011;14522;52.068;4.414;2023-07-08T01:20:54;5.13;;;2.22;;
26965;SDS011;14522;52.068;4.414;2023-07-08T01:23:24;5.47;;;1.95;;
26965;SDS011;14522;52.068;4.414;2023-07-08T01:25:50;6.00;;;2.25;;
26965;SDS011;14522;52.068;4.414;2023-07-08T01:28:17;4.93;;;2.53;;
26965;SDS011;14522;52.068;4.414;2023-07-08T01:30:44;4.68;;;2.25;;
26965;SDS011;14522;52.068;4.414;2023-07-08T01:33:14;3.22;;;2.17;;
26965;SDS011;14522;52.068;4.414;2023-07-08T01:35:42;5.57;;;2.22;;
26965;SDS011;14522;52.068;4.414;2023-07-08T01:38:10;5.13;;;2.67;;
26965;SDS011;14522;52.068;4.414;2023-07-08T01:40:37;4.05;;;2.28;;
26965;SDS011;14522;52.068;4.414;2023-07-08T01:43:04;4.38;;;2.38;;
26965;SDS011;14522;52.068;4.414;2023-07-08T01:45:36;6.28;;;2.63;;
26965;SDS011;14522;52.068;4.414;2023-07-08T01:48:05;6.72;;;2.63;;
26965;SDS011;14522;52.068;4.414;2023-07-08T01:50:33;2.47;;;1.40;;
26965;SDS011;14522;52.068;4.414;2023-07-08T01:53:02;6.10;;;2.00;;
26965;SDS011;14522;52.068;4.414;2023-07-08T01:55:29;4.18;;;2.03;;
26965;SDS011;14522;52.068;4.414;2023-07-08T01:57:56;3.30;;;1.60;;
26965;SDS011;14522;52.068;4.414;2023-07-08T02:00:23;4.05;;;1.90;;
26965;SDS011;14522;52.068;4.414;2023-07-08T02:02:50;4.05;;;2.00;;
26965;SDS011;14522;52.068;4.414;2023-07-08T02:05:17;3.90;;;1.85;;
26965;SDS011;14522;52.068;4.414;2023-07-08T02:07:43;5.75;;;2.15;;
26965;SDS011;14522;52.068;4.414;2023-07-08T02:10:09;3.88;;;2.30;;
26965;SDS011;14522;52.068;4.414;2023-07-08T02:12:36;6.38;;;2.42;;
26965;SDS011;14522;52.068;4.414;2023-07-08T02:15:02;6.18;;;2.35;;
26965;SDS011;14522;52.068;4.414;2023-07-08T02:17:29;5.63;;;1.98;;
26965;SDS011;14522;52.068;4.414;2023-07-08T02:19:56;5.05;;;1.90;;
26965;SDS011;14522;52.068;4.414;2023-07-08T02:22:22;3.95;;;2.22;;
26965;SDS011;14522;52.068;4.414;2023-07-08T02:24:49;2.75;;;1.80;;
26965;SDS011;14522;52.068;4.414;2023-07-08T02:27:15;7.32;;;2.25;;
26965;SDS011;14522;52.068;4.414;2023-07-08T02:29:42;5.03;;;2.15;;
26965;SDS011;14522;52.068;4.414;2023-07-08T02:32:09;4.43;;;2.40;;
26965;SDS011;14522;52.068;4.414;2023-07-08T02:34:36;5.35;;;2.03;;
26965;SDS011;14522;52.068;4.414;2023-07-08T02:37:03;5.07;;;2.35;;
26965;SDS011;14522;52.068;4.414;2023-07-08T02:39:30;3.55;;;2.33;;
26965;SDS011;14522;52.068;4.414;2023-07-08T02:41:56;8.10;;;2.30;;
26965;SDS011;14522;52.068;4.414;2023-07-08T02:44:23;5.25;;;1.77;;
26965;SDS011;14522;52.068;4.414;2023-07-08T02:46:49;3.70;;;2.33;;
26965;SDS011;14522;52.068;4.414;2023-07-08T02:49:16;2.88;;;2.15;;
26965;SDS011;14522;52.068;4.414;2023-07-08T02:51:42;3.40;;;2.00;;
26965;SDS011;14522;52.068;4.414;2023-07-08T02:54:09;5.20;;;2.30;;
26965;SDS011;14522;52.068;4.414;2023-07-08T02:56:35;6.03;;;2.20;;
26965;SDS011;14522;52.068;4.414;2023-07-08T02:59:01;3.45;;;2.08;;
26965;SDS011;14522;52.068;4.414;2023-07-08T03:01:28;4.25;;;2.17;;
26965;SDS011;14522;52.068;4.414;2023-07-08T03:03:55;3.60;;;1.77;;
26965;SDS011;14522;52.068;4.414;2023-07-08T03:06:26;6.22;;;2.30;;
26965;SDS011;14522;52.068;4.414;2023-07-08T03:08:53;13.68;;;2.38;;
26965;SDS011;14522;52.068;4.414;2023-07-08T03:11:19;4.32;;;1.77;;
26965;SDS011;14522;52.068;4.414;2023-07-08T03:13:45;6.80;;;2.55;;
26965;SDS011;14522;52.068;4.414;2023-07-08T03:16:12;3.90;;;2.55;;
26965;SDS011;14522;52.068;4.414;2023-07-08T03:18:39;4.38;;;2.40;;
26965;SDS011;14522;52.068;4.414;2023-07-08T03:21:13;7.13;;;2.42;;
26965;SDS011;14522;52.068;4.414;2023-07-08T03:23:39;2.65;;;1.50;;
26965;SDS011;14522;52.068;4.414;2023-07-08T03:26:06;4.15;;;2.50;;
26965;SDS011;14522;52.068;4.414;2023-07-08T03:28:33;5.88;;;2.83;;
26965;SDS011;14522;52.068;4.414;2023-07-08T03:30:59;3.40;;;2.13;;
26965;SDS011;14522;52.068;4.414;2023-07-08T03:33:26;3.60;;;2.05;;
26965;SDS011;14522;52.068;4.414;2023-07-08T03:35:53;3.40;;;1.95;;
26965;SDS011;14522;52.068;4.414;2023-07-08T03:38:19;4.57;;;2.15;;
26965;SDS011;14522;52.068;4.414;2023-07-08T03:40:46;4.95;;;2.75;;
26965;SDS011;14522;52.068;4.414;2023-07-08T03:43:12;5.43;;;2.50;;
26965;SDS011;14522;52.068;4.414;2023-07-08T03:45:39;4.30;;;2.75;;
26965;SDS011;14522;52.068;4.414;2023-07-08T03:48:05;4.20;;;2.42;;
26965;SDS011;14522;52.068;4.414;2023-07-08T03:50:32;3.50;;;2.17;;
26965;SDS011;14522;52.068;4.414;2023-07-08T03:52:58;6.05;;;2.05;;
26965;SDS011;14522;52.068;4.414;2023-07-08T03:55:26;4.85;;;2.45;;
26965;SDS011;14522;52.068;4.414;2023-07-08T03:57:53;2.55;;;1.85;;
26965;SDS011;14522;52.068;4.414;2023-07-08T04:00:19;3.47;;;2.20;;
26965;SDS011;14522;52.068;4.414;2023-07-08T04:02:46;6.15;;;2.30;;
26965;SDS011;14522;52.068;4.414;2023-07-08T04:05:17;3.17;;;1.80;;
26965;SDS011;14522;52.068;4.414;2023-07-08T04:07:44;2.97;;;2.03;;
26965;SDS011;14522;52.068;4.414;2023-07-08T04:10:11;3.65;;;1.65;;
26965;SDS011;14522;52.068;4.414;2023-07-08T04:12:37;3.63;;;2.15;;
26965;SDS011;14522;52.068;4.414;2023-07-08T04:15:04;4.22;;;2.45;;
26965;SDS011;14522;52.068;4.414;2023-07-08T04:17:31;4.18;;;2.22;;
26965;SDS011;14522;52.068;4.414;2023-07-08T04:19:57;3.90;;;2.38;;
26965;SDS011;14522;52.068;4.414;2023-07-08T04:22:24;2.58;;;1.83;;
26965;SDS011;14522;52.068;4.414;2023-07-08T04:24:50;4.03;;;2.42;;
26965;SDS011;14522;52.068;4.414;2023-07-08T04:27:17;5.60;;;3.13;;
26965;SDS011;14522;52.068;4.414;2023-07-08T04:29:43;2.97;;;2.00;;
26965;SDS011;14522;52.068;4.414;2023-07-08T04:32:10;3.45;;;2.35;;
26965;SDS011;14522;52.068;4.414;2023-07-08T04:34:37;3.10;;;1.83;;
26965;SDS011;14522;52.068;4.414;2023-07-08T04:37:03;20.23;;;2.95;;
26965;SDS011;14522;52.068;4.414;2023-07-08T04:39:33;3.72;;;2.60;;
26965;SDS011;14522;52.068;4.414;2023-07-08T04:41:59;4.00;;;2.47;;
26965;SDS011;14522;52.068;4.414;2023-07-08T04:44:25;3.08;;;2.05;;
26965;SDS011;14522;52.068;4.414;2023-07-08T04:46:56;3.88;;;2.03;;
26965;SDS011;14522;52.068;4.414;2023-07-08T04:49:23;4.97;;;2.53;;
26965;SDS011;14522;52.068;4.414;2023-07-08T04:51:50;6.68;;;2.35;;
26965;SDS011;14522;52.068;4.414;2023-07-08T04:54:17;2.47;;;1.88;;
26965;SDS011;14522;52.068;4.414;2023-07-08T04:56:46;4.45;;;2.47;;
26965;SDS011;14522;52.068;4.414;2023-07-08T04:59:14;3.83;;;2.42;;
26965;SDS011;14522;52.068;4.414;2023-07-08T05:01:41;5.30;;;2.65;;
26965;SDS011;14522;52.068;4.414;2023-07-08T05:04:07;3.75;;;2.53;;
26965;SDS011;14522;52.068;4.414;2023-07-08T05:06:35;3.92;;;2.38;;
26965;SDS011;14522;52.068;4.414;2023-07-08T05:09:01;5.60;;;2.63;;
26965;SDS011;14522;52.068;4.414;2023-07-08T05:11:28;4.32;;;2.25;;
26965;SDS011;14522;52.068;4.414;2023-07-08T05:13:55;5.40;;;2.15;;
26965;SDS011;14522;52.068;4.414;2023-07-08T05:16:22;5.80;;;2.13;;
26965;SDS011;14522;52.068;4.414;2023-07-08T05:18:48;4.38;;;2.40;;
26965;SDS011;14522;52.068;4.414;2023-07-08T05:21:15;6.47;;;3.03;;
26965;SDS011;14522;52.068;4.414;2023-07-08T05:23:41;7.63;;;2.50;;
26965;SDS011;14522;52.068;4.414;2023-07-08T05:26:08;5.00;;;2.67;;
26965;SDS011;14522;52.068;4.414;2023-07-08T05:28:34;4.50;;;3.08;;
26965;SDS011;14522;52.068;4.414;2023-07-08T05:31:01;7.28;;;3.28;;
26965;SDS011;14522;52.068;4.414;2023-07-08T05:33:28;5.78;;;3.10;;
26965;SDS011;14522;52.068;4.414;2023-07-08T05:35:55;6.32;;;3.10;;
26965;SDS011;14522;52.068;4.414;2023-07-08T05:38:21;4.57;;;2.75;;
26965;SDS011;14522;52.068;4.414;2023-07-08T05:40:48;7.68;;;2.60;;
26965;SDS011;14522;52.068;4.414;2023-07-08T05:43:16;6.10;;;2.97;;
26965;SDS011;14522;52.068;4.414;2023-07-08T05:45:42;4.10;;;2.28;;
26965;SDS011;14522;52.068;4.414;2023-07-08T05:48:09;6.80;;;2.28;;
26965;SDS011;14522;52.068;4.414;2023-07-08T05:50:36;6.05;;;2.63;;
26965;SDS011;14522;52.068;4.414;2023-07-08T05:53:03;4.38;;;2.75;;
26965;SDS011;14522;52.068;4.414;2023-07-08T05:55:29;6.55;;;2.90;;
26965;SDS011;14522;52.068;4.414;2023-07-08T05:57:57;4.55;;;2.38;;
26965;SDS011;14522;52.068;4.414;2023-07-08T06:00:23;2.53;;;1.90;;
26965;SDS011;14522;52.068;4.414;2023-07-08T06:02:55;6.65;;;2.35;;
26965;SDS011;14522;52.068;4.414;2023-07-08T06:05:21;3.70;;;2.08;;
26965;SDS011;14522;52.068;4.414;2023-07-08T06:07:48;8.65;;;2.75;;
26965;SDS011;14522;52.068;4.414;2023-07-08T06:10:14;4.70;;;3.00;;
26965;SDS011;14522;52.068;4.414;2023-07-08T06:12:41;4.05;;;2.55;;
26965;SDS011;14522;52.068;4.414;2023-07-08T06:15:07;6.15;;;2.83;;
26965;SDS011;14522;52.068;4.414;2023-07-08T06:17:34;6.18;;;3.17;;
26965;SDS011;14522;52.068;4.414;2023-07-08T06:20:00;5.20;;;2.67;;
26965;SDS011;14522;52.068;4.414;2023-07-08T06:22:28;2.67;;;1.75;;
26965;SDS011;14522;52.068;4.414;2023-07-08T06:25:14;3.78;;;2.25;;
26965;SDS011;14522;52.068;4.414;2023-07-08T06:27:40;4.65;;;2.58;;
26965;SDS011;14522;52.068;4.414;2023-07-08T06:30:07;6.47;;;3.45;;
26965;SDS011;14522;52.068;4.414;2023-07-08T06:32:34;4.03;;;2.70;;
26965;SDS011;14522;52.068;4.414;2023-07-08T06:35:00;4.97;;;2.80;;
26965;SDS011;14522;52.068;4.414;2023-07-08T06:37:27;6.85;;;3.05;;
26965;SDS011;14522;52.068;4.414;2023-07-08T06:39:53;9.23;;;2.78;;
26965;SDS011;14522;52.068;4.414;2023-07-08T06:42:19;7.07;;;2.90;;
26965;SDS011;14522;52.068;4.414;2023-07-08T06:44:46;8.13;;;3.08;;
26965;SDS011;14522;52.068;4.414;2023-07-08T06:47:19;6.68;;;2.67;;
26965;SDS011;14522;52.068;4.414;2023-07-08T06:49:46;5.05;;;3.08;;
26965;SDS011;14522;52.068;4.414;2023-07-08T06:52:13;3.97;;;2.58;;
26965;SDS011;14522;52.068;4.414;2023-07-08T06:54:40;7.63;;;2.85;;
26965;SDS011;14522;52.068;4.414;2023-07-08T06:57:06;5.00;;;2.60;;
26965;SDS011;14522;52.068;4.414;2023-07-08T06:59:33;7.88;;;2.38;;
26965;SDS011;14522;52.068;4.414;2023-07-08T07:02:00;6.80;;;2.72;;
26965;SDS011;14522;52.068;4.414;2023-07-08T07:04:27;4.03;;;2.70;;
26965;SDS011;14522;52.068;4.414;2023-07-08T07:06:53;5.03;;;2.75;;
26965;SDS011;14522;52.068;4.414;2023-07-08T07:09:20;3.95;;;2.38;;
26965;SDS011;14522;52.068;4.414;2023-07-08T07:11:46;4.50;;;2.75;;
26965;SDS011;14522;52.068;4.414;2023-07-08T07:14:13;4.63;;;3.83;;
26965;SDS011;14522;52.068;4.414;2023-07-08T07:16:42;3.28;;;2.35;;
26965;SDS011;14522;52.068;4.414;2023-07-08T07:19:27;5.07;;;2.40;;
26965;SDS011;14522;52.068;4.414;2023-07-08T07:21:53;6.45;;;2.70;;
26965;SDS011;14522;52.068;4.414;2023-07-08T07:24:20;5.30;;;3.17;;
26965;SDS011;14522;52.068;4.414;2023-07-08T07:26:46;4.03;;;2.53;;
26965;SDS011;14522;52.068;4.414;2023-07-08T07:29:15;6.43;;;3.20;;
26965;SDS011;14522;52.068;4.414;2023-07-08T07:31:42;5.60;;;2.67;;
26965;SDS011;14522;52.068;4.414;2023-07-08T07:34:09;6.40;;;2.67;;
26965;SDS011;14522;52.068;4.414;2023-07-08T07:36:35;4.97;;;2.80;;
26965;SDS011;14522;52.068;4.414;2023-07-08T07:39:02;8.68;;;3.13;;
26965;SDS011;14522;52.068;4.414;2023-07-08T07:41:28;4.47;;;2.42;;
26965;SDS011;14522;52.068;4.414;2023-07-08T07:43:54;6.65;;;2.92;;
26965;SDS011;14522;52.068;4.414;2023-07-08T07:46:21;6.45;;;2.45;;
26965;SDS011;14522;52.068;4.414;2023-07-08T07:48:47;9.20;;;2.65;;
26965;SDS011;14522;52.068;4.414;2023-07-08T07:51:14;3.90;;;2.30;;
26965;SDS011;14522;52.068;4.414;2023-07-08T07:53:40;3.65;;;2.50;;
26965;SDS011;14522;52.068;4.414;2023-07-08T07:56:06;9.52;;;2.78;;
26965;SDS011;14522;52.068;4.414;2023-07-08T07:58:33;5.50;;;3.00;;
26965;SDS011;14522;52.068;4.414;2023-07-08T08:00:59;7.32;;;3.20;;
26965;SDS011;14522;52.068;4.414;2023-07-08T08:03:26;3.97;;;1.52;;
26965;SDS011;14522;52.068;4.414;2023-07-08T08:05:53;3.67;;;2.53;;
26965;SDS011;14522;52.068;4.414;2023-07-08T08:08:19;3.50;;;2.20;;
26965;SDS011;14522;52.068;4.414;2023-07-08T08:10:46;7.88;;;2.85;;
26965;SDS011;14522;52.068;4.414;2023-07-08T08:13:13;5.93;;;3.47;;
26965;SDS011;14522;52.068;4.414;2023-07-08T08:15:39;4.05;;;2.60;;
26965;SDS011;14522;52.068;4.414;2023-07-08T08:18:06;5.50;;;2.60;;
26965;SDS011;14522;52.068;4.414;2023-07-08T08:20:33;3.72;;;2.20;;
26965;SDS011;14522;52.068;4.414;2023-07-08T08:22:59;5.07;;;2.88;;
26965;SDS011;14522;52.068;4.414;2023-07-08T08:25:25;7.03;;;2.85;;
26965;SDS011;14522;52.068;4.414;2023-07-08T08:27:52;9.23;;;3.22;;
26965;SDS011;14522;52.068;4.414;2023-07-08T08:30:19;9.07;;;3.03;;
26965;SDS011;14522;52.068;4.414;2023-07-08T08:32:45;5.72;;;3.00;;
26965;SDS011;14522;52.068;4.414;2023-07-08T08:35:12;9.07;;;3.05;;
26965;SDS011;14522;52.068;4.414;2023-07-08T08:37:38;7.82;;;2.80;;
26965;SDS011;14522;52.068;4.414;2023-07-08T08:40:05;6.15;;;3.08;;
26965;SDS011;14522;52.068;4.414;2023-07-08T08:42:39;5.70;;;2.83;;
26965;SDS011;14522;52.068;4.414;2023-07-08T08:45:06;6.03;;;2.78;;
26965;SDS011;14522;52.068;4.414;2023-07-08T08:47:37;9.25;;;3.20;;
26965;SDS011;14522;52.068;4.414;2023-07-08T08:52:43;4.75;;;3.10;;
26965;SDS011;14522;52.068;4.414;2023-07-08T08:55:13;4.70;;;3.08;;
26965;SDS011;14522;52.068;4.414;2023-07-08T09:00:13;4.35;;;2.95;;
26965;SDS011;14522;52.068;4.414;2023-07-08T09:02:47;4.75;;;2.95;;
26965;SDS011;14522;52.068;4.414;2023-07-08T09:07:45;5.95;;;2.95;;
26965;SDS011;14522;52.068;4.414;2023-07-08T09:10:15;6.35;;;2.83;;
26965;SDS011;14522;52.068;4.414;2023-07-08T09:12:45;6.43;;;3.05;;
26965;SDS011;14522;52.068;4.414;2023-07-08T09:15:13;8.02;;;3.55;;
26965;SDS011;14522;52.068;4.414;2023-07-08T09:17:39;11.18;;;3.55;;
26965;SDS011;14522;52.068;4.414;2023-07-08T09:20:11;8.82;;;3.30;;
26965;SDS011;14522;52.068;4.414;2023-07-08T09:22:52;5.38;;;3.22;;
26965;SDS011;14522;52.068;4.414;2023-07-08T09:25:35;8.55;;;3.25;;
26965;SDS011;14522;52.068;4.414;2023-07-08T09:28:03;6.40;;;3.30;;
26965;SDS011;14522;52.068;4.414;2023-07-08T09:30:29;7.35;;;3.30;;
26965;SDS011;14522;52.068;4.414;2023-07-08T09:32:57;6.40;;;3.35;;
26965;SDS011;14522;52.068;4.414;2023-07-08T09:35:24;4.18;;;2.92;;
26965;SDS011;14522;52.068;4.414;2023-07-08T09:37:52;5.75;;;2.90;;
26965;SDS011;14522;52.068;4.414;2023-07-08T09:40:20;6.78;;;3.30;;
26965;SDS011;14522;52.068;4.414;2023-07-08T09:42:52;7.00;;;3.88;;
26965;SDS011;14522;52.068;4.414;2023-07-08T09:45:19;8.18;;;3.85;;
26965;SDS011;14522;52.068;4.414;2023-07-08T09:47:46;7.70;;;3.50;;
26965;SDS011;14522;52.068;4.414;2023-07-08T09:52:47;10.88;;;3.65;;
26965;SDS011;14522;52.068;4.414;2023-07-08T09:55:13;5.40;;;3.65;;
26965;SDS011;14522;52.068;4.414;2023-07-08T09:57:40;8.40;;;3.75;;
26965;SDS011;14522;52.068;4.414;2023-07-08T10:00:08;8.75;;;4.03;;
26965;SDS011;14522;52.068;4.414;2023-07-08T10:02:45;7.95;;;3.75;;
26965;SDS011;14522;52.068;4.414;2023-07-08T10:07:45;6.05;;;4.03;;
26965;SDS011;14522;52.068;4.414;2023-07-08T10:10:18;7.43;;;3.72;;
26965;SDS011;14522;52.068;4.414;2023-07-08T10:12:53;5.82;;;3.80;;
26965;SDS011;14522;52.068;4.414;2023-07-08T10:15:31;6.13;;;3.95;;
26965;SDS011;14522;52.068;4.414;2023-07-08T10:18:00;5.72;;;3.67;;
26965;SDS011;14522;52.068;4.414;2023-07-08T10:20:28;6.60;;;3.70;;
26965;SDS011;14522;52.068;4.414;2023-07-08T10:23:00;6.18;;;3.55;;
26965;SDS011;14522;52.068;4.414;2023-07-08T10:25:42;5.97;;;3.53;;
26965;SDS011;14522;52.068;4.414;2023-07-08T10:28:21;9.07;;;4.20;;
26965;SDS011;14522;52.068;4.414;2023-07-08T10:36:40;10.18;;;3.90;;
26965;SDS011;14522;52.068;4.414;2023-07-08T10:41:32;6.32;;;3.92;;
26965;SDS011;14522;52.068;4.414;2023-07-08T10:44:13;8.10;;;4.13;;
26965;SDS011;14522;52.068;4.414;2023-07-08T11:07:39;7.13;;;3.83;;
26965;SDS011;14522;52.068;4.414;2023-07-08T11:10:14;7.18;;;4.03;;
26965;SDS011;14522;52.068;4.414;2023-07-08T11:12:45;13.93;;;4.85;;
26965;SDS011;14522;52.068;4.414;2023-07-08T11:20:18;6.75;;;4.05;;
26965;SDS011;14522;52.068;4.414;2023-07-08T11:22:51;7.50;;;3.90;;
26965;SDS011;14522;52.068;4.414;2023-07-08T11:25:19;7.97;;;4.40;;
26965;SDS011;14522;52.068;4.414;2023-07-08T11:27:47;9.63;;;4.82;;
26965;SDS011;14522;52.068;4.414;2023-07-08T11:30:16;8.07;;;5.30;;
26965;SDS011;14522;52.068;4.414;2023-07-08T11:32:43;7.05;;;4.35;;
26965;SDS011;14522;52.068;4.414;2023-07-08T11:35:21;9.38;;;4.75;;
26965;SDS011;14522;52.068;4.414;2023-07-08T11:37:49;9.07;;;5.07;;
26965;SDS011;14522;52.068;4.414;2023-07-08T11:40:21;8.00;;;4.85;;
26965;SDS011;14522;52.068;4.414;2023-07-08T11:42:49;12.15;;;4.93;;
26965;SDS011;14522;52.068;4.414;2023-07-08T11:45:38;11.75;;;4.28;;
26965;SDS011;14522;52.068;4.414;2023-07-08T11:48:26;10.88;;;4.90;;
26965;SDS011;14522;52.068;4.414;2023-07-08T11:50:51;7.30;;;4.65;;
26965;SDS011;14522;52.068;4.414;2023-07-08T11:56:01;7.45;;;4.47;;
26965;SDS011;14522;52.068;4.414;2023-07-08T11:58:29;6.72;;;4.90;;
26965;SDS011;14522;52.068;4.414;2023-07-08T12:01:00;8.85;;;5.15;;
26965;SDS011;14522;52.068;4.414;2023-07-08T12:06:02;13.40;;;4.65;;
26965;SDS011;14522;52.068;4.414;2023-07-08T12:08:33;8.43;;;4.85;;
26965;SDS011;14522;52.068;4.414;2023-07-08T12:11:00;10.23;;;5.10;;
26965;SDS011;14522;52.068;4.414;2023-07-08T12:13:27;7.78;;;4.75;;
26965;SDS011;14522;52.068;4.414;2023-07-08T12:15:55;12.88;;;5.57;;
26965;SDS011;14522;52.068;4.414;2023-07-08T12:18:24;9.90;;;5.10;;
26965;SDS011;14522;52.068;4.414;2023-07-08T12:20:56;11.85;;;4.80;;
26965;SDS011;14522;52.068;4.414;2023-07-08T12:23:24;7.97;;;4.45;;
26965;SDS011;14522;52.068;4.414;2023-07-08T12:25:51;6.78;;;4.43;;
26965;SDS011;14522;52.068;4.414;2023-07-08T12:28:18;7.53;;;4.35;;
26965;SDS011;14522;52.068;4.414;2023-07-08T12:30:45;13.70;;;4.57;;
26965;SDS011;14522;52.068;4.414;2023-07-08T12:33:13;10.30;;;4.78;;
26965;SDS011;14522;52.068;4.414;2023-07-08T12:35:40;13.05;;;4.88;;
26965;SDS011;14522;52.068;4.414;2023-07-08T12:38:50;11.05;;;5.10;;
26965;SDS011;14522;52.068;4.414;2023-07-08T12:40:58;10.10;;;4.50;;
26965;SDS011;14522;52.068;4.414;2023-07-08T12:43:26;8.80;;;4.68;;
26965;SDS011;14522;52.068;4.414;2023-07-08T12:45:52;11.98;;;5.15;;
26965;SDS011;14522;52.068;4.414;2023-07-08T12:48:19;9.90;;;4.78;;
26965;SDS011;14522;52.068;4.414;2023-07-08T12:50:45;6.80;;;4.57;;
26965;SDS011;14522;52.068;4.414;2023-07-08T12:53:11;12.43;;;4.78;;
26965;SDS011;14522;52.068;4.414;2023-07-08T12:55:39;7.22;;;4.28;;
26965;SDS011;14522;52.068;4.414;2023-07-08T12:58:09;6.78;;;3.58;;
26965;SDS011;14522;52.068;4.414;2023-07-08T13:00:39;7.60;;;3.70;;
26965;SDS011;14522;52.068;4.414;2023-07-08T13:03:07;8.43;;;4.20;;
26965;SDS011;14522;52.068;4.414;2023-07-08T13:05:35;8.27;;;4.13;;
26965;SDS011;14522;52.068;4.414;2023-07-08T13:08:01;5.90;;;3.70;;
26965;SDS011;14522;52.068;4.414;2023-07-08T13:10:28;8.32;;;4.20;;
26965;SDS011;14522;52.068;4.414;2023-07-08T13:12:59;7.60;;;4.22;;
26965;SDS011;14522;52.068;4.414;2023-07-08T13:15:31;6.65;;;4.10;;
26965;SDS011;14522;52.068;4.414;2023-07-08T13:17:59;6.75;;;3.47;;
26965;SDS011;14522;52.068;4.414;2023-07-08T13:20:27;6.97;;;4.55;;
26965;SDS011;14522;52.068;4.414;2023-07-08T13:22:55;9.10;;;4.22;;
26965;SDS011;14522;52.068;4.414;2023-07-08T13:25:25;8.52;;;4.57;;
26965;SDS011;14522;52.068;4.414;2023-07-08T13:27:56;6.85;;;4.28;;
26965;SDS011;14522;52.068;4.414;2023-07-08T13:30:24;9.95;;;4.60;;
26965;SDS011;14522;52.068;4.414;2023-07-08T13:32:54;7.18;;;3.88;;
26965;SDS011;14522;52.068;4.414;2023-07-08T13:35:25;8.85;;;3.95;;
26965;SDS011;14522;52.068;4.414;2023-07-08T13:37:53;10.02;;;4.13;;
26965;SDS011;14522;52.068;4.414;2023-07-08T13:40:21;7.55;;;3.58;;
26965;SDS011;14522;52.068;4.414;2023-07-08T13:42:50;10.68;;;3.88;;
26965;SDS011;14522;52.068;4.414;2023-07-08T13:45:28;7.85;;;4.40;;
26965;SDS011;14522;52.068;4.414;2023-07-08T13:48:38;11.25;;;4.20;;
26965;SDS011;14522;52.068;4.414;2023-07-08T13:50:58;9.60;;;4.03;;
26965;SDS011;14522;52.068;4.414;2023-07-08T13:53:33;7.70;;;4.15;;
26965;SDS011;14522;52.068;4.414;2023-07-08T13:56:14;9.43;;;4.13;;
26965;SDS011;14522;52.068;4.414;2023-07-08T13:58:42;10.60;;;4.17;;
26965;SDS011;14522;52.068;4.414;2023-07-08T14:01:19;7.32;;;3.80;;
26965;SDS011;14522;52.068;4.414;2023-07-08T14:03:48;7.50;;;4.45;;
26965;SDS011;14522;52.068;4.414;2023-07-08T14:06:16;8.15;;;4.38;;
26965;SDS011;14522;52.068;4.414;2023-07-08T14:08:42;7.78;;;4.65;;
26965;SDS011;14522;52.068;4.414;2023-07-08T14:11:09;10.98;;;4.75;;
26965;SDS011;14522;52.068;4.414;2023-07-08T14:13:35;11.98;;;4.03;;
26965;SDS011;14522;52.068;4.414;2023-07-08T14:16:02;9.18;;;4.18;;
26965;SDS011;14522;52.068;4.414;2023-07-08T14:18:32;7.25;;;3.30;;
26965;SDS011;14522;52.068;4.414;2023-07-08T14:20:58;10.23;;;4.50;;
26965;SDS011;14522;52.068;4.414;2023-07-08T14:23:25;9.68;;;4.03;;
26965;SDS011;14522;52.068;4.414;2023-07-08T14:25:51;9.57;;;4.00;;
26965;SDS011;14522;52.068;4.414;2023-07-08T14:28:18;11.77;;;4.10;;
26965;SDS011;14522;52.068;4.414;2023-07-08T14:30:45;13.30;;;4.40;;
26965;SDS011;14522;52.068;4.414;2023-07-08T14:33:13;6.85;;;3.83;;
26965;SDS011;14522;52.068;4.414;2023-07-08T14:35:40;5.40;;;3.35;;
26965;SDS011;14522;52.068;4.414;2023-07-08T14:38:10;6.82;;;3.72;;
26965;SDS011;14522;52.068;4.414;2023-07-08T14:40:37;5.32;;;3.35;;
26965;SDS011;14522;52.068;4.414;2023-07-08T14:43:05;7.45;;;3.72;;
26965;SDS011;14522;52.068;4.414;2023-07-08T14:45:38;13.98;;;4.25;;
26965;SDS011;14522;52.068;4.414;2023-07-08T14:48:08;7.80;;;3.75;;
26965;SDS011;14522;52.068;4.414;2023-07-08T14:50:36;7.82;;;4.95;;
26965;SDS011;14522;52.068;4.414;2023-07-08T14:53:02;10.85;;;5.40;;
26965;SDS011;14522;52.068;4.414;2023-07-08T14:55:29;7.80;;;3.97;;
26965;SDS011;14522;52.068;4.414;2023-07-08T14:57:55;9.25;;;4.32;;
26965;SDS011;14522;52.068;4.414;2023-07-08T15:00:22;8.13;;;4.22;;
26965;SDS011;14522;52.068;4.414;2023-07-08T15:02:49;6.78;;;4.15;;
26965;SDS011;14522;52.068;4.414;2023-07-08T15:05:21;6.55;;;4.03;;
26965;SDS011;14522;52.068;4.414;2023-07-08T15:07:51;8.98;;;3.95;;
26965;SDS011;14522;52.068;4.414;2023-07-08T15:10:18;8.18;;;5.00;;
26965;SDS011;14522;52.068;4.414;2023-07-08T15:12:46;8.57;;;4.40;;
26965;SDS011;14522;52.068;4.414;2023-07-08T15:15:17;8.70;;;5.13;;
26965;SDS011;14522;52.068;4.414;2023-07-08T15:17:44;8.13;;;4.55;;
26965;SDS011;14522;52.068;4.414;2023-07-08T15:20:14;10.20;;;4.95;;
26965;SDS011;14522;52.068;4.414;2023-07-08T15:22:41;8.30;;;5.22;;
26965;SDS011;14522;52.068;4.414;2023-07-08T15:25:09;7.20;;;4.32;;
26965;SDS011;14522;52.068;4.414;2023-07-08T15:27:36;6.45;;;3.95;;
26965;SDS011;14522;52.068;4.414;2023-07-08T15:30:02;8.77;;;4.47;;
26965;SDS011;14522;52.068;4.414;2023-07-08T15:32:29;8.25;;;4.45;;
26965;SDS011;14522;52.068;4.414;2023-07-08T15:35:11;9.90;;;4.90;;
26965;SDS011;14522;52.068;4.414;2023-07-08T15:37:38;7.45;;;4.32;;
26965;SDS011;14522;52.068;4.414;2023-07-08T15:40:04;8.82;;;5.78;;
26965;SDS011;14522;52.068;4.414;2023-07-08T15:42:35;9.75;;;4.85;;
26965;SDS011;14522;52.068;4.414;2023-07-08T15:45:12;10.18;;;5.55;;
26965;SDS011;14522;52.068;4.414;2023-07-08T15:47:39;8.63;;;5.30;;
26965;SDS011;14522;52.068;4.414;2023-07-08T15:50:09;11.05;;;4.80;;